sensor_id;sensor_type;location;lat;lon;timestamp;P1;durP1;ratioP1;P2;durP2;ratioP2
53525;SDS011;40551;50.478;19.378;2022-08-23T00:01:41;6.10;;;2.60;;
53525;SDS011;40551;50.478;19.378;2022-08-23T00:04:13;5.10;;;2.70;;
53525;SDS011;40551;50.478;19.378;2022-08-23T00:06:49;7.90;;;2.80;;
53525;SDS011;40551;50.478;19.378;2022-08-23T00:09:19;4.70;;;2.50;;
53525;SDS011;40551;50.478;19.378;2022-08-23T00:11:49;5.60;;;2.40;;
53525;SDS011;40551;50.478;19.378;2022-08-23T00:14:20;6.40;;;2.80;;
53525;SDS011;40551;50.478;19.378;2022-08-23T00:16:51;7.80;;;2.80;;
53525;SDS011;40551;50.478;19.378;2022-08-23T00:19:21;6.90;;;2.70;;
53525;SDS011;40551;50.478;19.378;2022-08-23T00:21:51;7.20;;;2.70;;
53525;SDS011;40551;50.478;19.378;2022-08-23T00:24:25;6.10;;;2.90;;
53525;SDS011;40551;50.478;19.378;2022-08-23T00:26:55;7.60;;;2.70;;
53525;SDS011;40551;50.478;19.378;2022-08-23T00:29:27;6.30;;;2.90;;
53525;SDS011;40551;50.478;19.378;2022-08-23T00:31:57;6.40;;;2.80;;
53525;SDS011;40551;50.478;19.378;2022-08-23T00:34:26;7.10;;;3.20;;
53525;SDS011;40551;50.478;19.378;2022-08-23T00:36:54;7.20;;;3.60;;
53525;SDS011;40551;50.478;19.378;2022-08-23T00:39:24;6.50;;;3.20;;
53525;SDS011;40551;50.478;19.378;2022-08-23T00:41:54;7.50;;;3.80;;
53525;SDS011;40551;50.478;19.378;2022-08-23T00:44:28;18.70;;;3.90;;
53525;SDS011;40551;50.478;19.378;2022-08-23T00:47:19;7.90;;;4.80;;
53525;SDS011;40551;50.478;19.378;2022-08-23T00:50:10;10.00;;;4.90;;
53525;SDS011;40551;50.478;19.378;2022-08-23T00:52:51;9.30;;;4.80;;
53525;SDS011;40551;50.478;19.378;2022-08-23T00:55:34;10.70;;;5.50;;
53525;SDS011;40551;50.478;19.378;2022-08-23T00:58:05;10.60;;;5.00;;
53525;SDS011;40551;50.478;19.378;2022-08-23T01:00:34;10.40;;;5.10;;
53525;SDS011;40551;50.478;19.378;2022-08-23T01:03:02;9.00;;;4.60;;
53525;SDS011;40551;50.478;19.378;2022-08-23T01:05:35;12.20;;;4.70;;
53525;SDS011;40551;50.478;19.378;2022-08-23T01:08:13;8.60;;;4.00;;
53525;SDS011;40551;50.478;19.378;2022-08-23T01:10:43;8.00;;;4.60;;
53525;SDS011;40551;50.478;19.378;2022-08-23T01:13:22;7.00;;;4.20;;
53525;SDS011;40551;50.478;19.378;2022-08-23T01:15:56;8.60;;;3.80;;
53525;SDS011;40551;50.478;19.378;2022-08-23T01:18:31;7.20;;;3.70;;
53525;SDS011;40551;50.478;19.378;2022-08-23T01:21:02;8.10;;;4.00;;
53525;SDS011;40551;50.478;19.378;2022-08-23T01:23:39;8.80;;;4.00;;
53525;SDS011;40551;50.478;19.378;2022-08-23T01:26:10;8.50;;;4.10;;
53525;SDS011;40551;50.478;19.378;2022-08-23T01:28:40;8.80;;;4.10;;
53525;SDS011;40551;50.478;19.378;2022-08-23T01:31:13;7.70;;;4.10;;
53525;SDS011;40551;50.478;19.378;2022-08-23T01:33:49;10.80;;;4.10;;
53525;SDS011;40551;50.478;19.378;2022-08-23T01:36:24;11.60;;;4.40;;
53525;SDS011;40551;50.478;19.378;2022-08-23T01:38:53;8.80;;;4.50;;
53525;SDS011;40551;50.478;19.378;2022-08-23T01:41:21;10.90;;;4.00;;
53525;SDS011;40551;50.478;19.378;2022-08-23T01:43:50;7.60;;;3.80;;
53525;SDS011;40551;50.478;19.378;2022-08-23T01:46:21;7.10;;;3.70;;
53525;SDS011;40551;50.478;19.378;2022-08-23T01:48:52;8.50;;;4.00;;
53525;SDS011;40551;50.478;19.378;2022-08-23T01:51:23;6.40;;;3.80;;
53525;SDS011;40551;50.478;19.378;2022-08-23T01:53:51;8.20;;;3.70;;
53525;SDS011;40551;50.478;19.378;2022-08-23T01:56:21;9.00;;;3.70;;
53525;SDS011;40551;50.478;19.378;2022-08-23T01:59:07;8.50;;;3.70;;
53525;SDS011;40551;50.478;19.378;2022-08-23T02:01:47;11.30;;;3.80;;
53525;SDS011;40551;50.478;19.378;2022-08-23T02:04:17;6.70;;;3.80;;
53525;SDS011;40551;50.478;19.378;2022-08-23T02:09:20;9.20;;;4.00;;
53525;SDS011;40551;50.478;19.378;2022-08-23T02:11:55;7.70;;;3.80;;
53525;SDS011;40551;50.478;19.378;2022-08-23T02:14:26;10.60;;;4.50;;
53525;SDS011;40551;50.478;19.378;2022-08-23T02:17:04;7.30;;;4.20;;
53525;SDS011;40551;50.478;19.378;2022-08-23T02:19:36;9.60;;;4.00;;
53525;SDS011;40551;50.478;19.378;2022-08-23T02:22:05;9.50;;;4.40;;
53525;SDS011;40551;50.478;19.378;2022-08-23T02:24:37;8.40;;;4.10;;
53525;SDS011;40551;50.478;19.378;2022-08-23T02:27:07;11.10;;;4.40;;
53525;SDS011;40551;50.478;19.378;2022-08-23T02:29:38;12.20;;;4.30;;
53525;SDS011;40551;50.478;19.378;2022-08-23T02:32:09;12.50;;;4.50;;
53525;SDS011;40551;50.478;19.378;2022-08-23T02:34:39;9.70;;;4.10;;
53525;SDS011;40551;50.478;19.378;2022-08-23T02:37:09;7.40;;;4.00;;
53525;SDS011;40551;50.478;19.378;2022-08-23T02:39:38;10.60;;;4.20;;
53525;SDS011;40551;50.478;19.378;2022-08-23T02:42:08;10.50;;;4.60;;
53525;SDS011;40551;50.478;19.378;2022-08-23T02:44:39;9.70;;;4.30;;
53525;SDS011;40551;50.478;19.378;2022-08-23T02:47:08;8.00;;;4.30;;
53525;SDS011;40551;50.478;19.378;2022-08-23T02:49:40;12.00;;;4.50;;
53525;SDS011;40551;50.478;19.378;2022-08-23T02:52:08;10.30;;;4.50;;
53525;SDS011;40551;50.478;19.378;2022-08-23T02:54:36;10.30;;;4.80;;
53525;SDS011;40551;50.478;19.378;2022-08-23T02:57:05;14.40;;;5.20;;
53525;SDS011;40551;50.478;19.378;2022-08-23T02:59:33;11.80;;;5.80;;
53525;SDS011;40551;50.478;19.378;2022-08-23T03:02:01;12.60;;;4.80;;
53525;SDS011;40551;50.478;19.378;2022-08-23T03:04:34;10.80;;;4.40;;
53525;SDS011;40551;50.478;19.378;2022-08-23T03:07:03;15.30;;;4.90;;
53525;SDS011;40551;50.478;19.378;2022-08-23T03:09:33;12.00;;;4.90;;
53525;SDS011;40551;50.478;19.378;2022-08-23T03:12:02;13.40;;;5.00;;
53525;SDS011;40551;50.478;19.378;2022-08-23T03:14:31;13.60;;;5.20;;
53525;SDS011;40551;50.478;19.378;2022-08-23T03:17:04;10.00;;;5.60;;
53525;SDS011;40551;50.478;19.378;2022-08-23T03:19:33;12.60;;;5.10;;
53525;SDS011;40551;50.478;19.378;2022-08-23T03:22:01;10.20;;;5.40;;
53525;SDS011;40551;50.478;19.378;2022-08-23T03:24:29;8.70;;;5.00;;
53525;SDS011;40551;50.478;19.378;2022-08-23T03:26:59;12.30;;;5.50;;
53525;SDS011;40551;50.478;19.378;2022-08-23T03:29:28;14.90;;;4.80;;
53525;SDS011;40551;50.478;19.378;2022-08-23T03:32:01;14.10;;;5.70;;
53525;SDS011;40551;50.478;19.378;2022-08-23T03:34:35;13.60;;;5.20;;
53525;SDS011;40551;50.478;19.378;2022-08-23T03:37:06;14.00;;;5.70;;
53525;SDS011;40551;50.478;19.378;2022-08-23T03:39:35;13.70;;;5.30;;
53525;SDS011;40551;50.478;19.378;2022-08-23T03:42:04;9.70;;;5.80;;
53525;SDS011;40551;50.478;19.378;2022-08-23T03:44:33;12.40;;;5.80;;
53525;SDS011;40551;50.478;19.378;2022-08-23T03:47:02;13.80;;;5.50;;
53525;SDS011;40551;50.478;19.378;2022-08-23T03:49:32;10.20;;;5.00;;
53525;SDS011;40551;50.478;19.378;2022-08-23T03:52:02;10.30;;;5.20;;
53525;SDS011;40551;50.478;19.378;2022-08-23T03:54:32;12.60;;;4.90;;
53525;SDS011;40551;50.478;19.378;2022-08-23T03:57:02;11.00;;;6.50;;
53525;SDS011;40551;50.478;19.378;2022-08-23T03:59:34;10.10;;;5.30;;
53525;SDS011;40551;50.478;19.378;2022-08-23T04:02:07;9.30;;;5.30;;
53525;SDS011;40551;50.478;19.378;2022-08-23T04:04:35;11.30;;;5.70;;
53525;SDS011;40551;50.478;19.378;2022-08-23T04:07:22;9.60;;;5.30;;
53525;SDS011;40551;50.478;19.378;2022-08-23T04:09:55;11.30;;;5.10;;
53525;SDS011;40551;50.478;19.378;2022-08-23T04:12:26;8.30;;;5.30;;
53525;SDS011;40551;50.478;19.378;2022-08-23T04:14:54;10.20;;;5.10;;
53525;SDS011;40551;50.478;19.378;2022-08-23T04:17:23;11.30;;;4.80;;
53525;SDS011;40551;50.478;19.378;2022-08-23T04:19:52;10.70;;;5.70;;
53525;SDS011;40551;50.478;19.378;2022-08-23T04:22:20;10.40;;;5.40;;
53525;SDS011;40551;50.478;19.378;2022-08-23T04:24:50;12.70;;;7.20;;
53525;SDS011;40551;50.478;19.378;2022-08-23T04:27:18;10.90;;;5.90;;
53525;SDS011;40551;50.478;19.378;2022-08-23T04:29:47;13.00;;;5.50;;
53525;SDS011;40551;50.478;19.378;2022-08-23T04:32:16;13.50;;;6.70;;
53525;SDS011;40551;50.478;19.378;2022-08-23T04:34:55;11.00;;;5.90;;
53525;SDS011;40551;50.478;19.378;2022-08-23T04:37:24;9.70;;;5.50;;
53525;SDS011;40551;50.478;19.378;2022-08-23T04:39:53;9.00;;;5.90;;
53525;SDS011;40551;50.478;19.378;2022-08-23T04:42:42;10.20;;;6.00;;
53525;SDS011;40551;50.478;19.378;2022-08-23T04:45:11;13.90;;;6.50;;
53525;SDS011;40551;50.478;19.378;2022-08-23T04:47:43;11.60;;;6.20;;
53525;SDS011;40551;50.478;19.378;2022-08-23T04:50:11;8.90;;;5.70;;
53525;SDS011;40551;50.478;19.378;2022-08-23T04:52:58;9.50;;;6.80;;
53525;SDS011;40551;50.478;19.378;2022-08-23T04:55:27;9.50;;;5.90;;
53525;SDS011;40551;50.478;19.378;2022-08-23T04:58:05;10.40;;;5.90;;
53525;SDS011;40551;50.478;19.378;2022-08-23T05:00:41;10.60;;;6.30;;
53525;SDS011;40551;50.478;19.378;2022-08-23T05:03:09;10.50;;;6.60;;
53525;SDS011;40551;50.478;19.378;2022-08-23T05:05:38;9.60;;;6.50;;
53525;SDS011;40551;50.478;19.378;2022-08-23T05:08:07;13.80;;;7.50;;
53525;SDS011;40551;50.478;19.378;2022-08-23T05:10:36;14.20;;;6.30;;
53525;SDS011;40551;50.478;19.378;2022-08-23T05:13:09;10.10;;;6.70;;
53525;SDS011;40551;50.478;19.378;2022-08-23T05:15:37;10.40;;;6.30;;
53525;SDS011;40551;50.478;19.378;2022-08-23T05:18:06;8.90;;;6.00;;
53525;SDS011;40551;50.478;19.378;2022-08-23T05:20:35;12.30;;;6.10;;
53525;SDS011;40551;50.478;19.378;2022-08-23T05:23:04;13.20;;;6.40;;
53525;SDS011;40551;50.478;19.378;2022-08-23T05:25:35;12.30;;;6.30;;
53525;SDS011;40551;50.478;19.378;2022-08-23T05:28:24;10.80;;;5.80;;
53525;SDS011;40551;50.478;19.378;2022-08-23T05:30:56;14.10;;;6.90;;
53525;SDS011;40551;50.478;19.378;2022-08-23T05:33:30;9.10;;;5.70;;
53525;SDS011;40551;50.478;19.378;2022-08-23T05:36:00;8.90;;;6.00;;
53525;SDS011;40551;50.478;19.378;2022-08-23T05:38:29;8.90;;;5.80;;
53525;SDS011;40551;50.478;19.378;2022-08-23T05:40:58;10.60;;;6.10;;
53525;SDS011;40551;50.478;19.378;2022-08-23T05:43:32;12.30;;;6.30;;
53525;SDS011;40551;50.478;19.378;2022-08-23T05:46:02;12.60;;;6.70;;
53525;SDS011;40551;50.478;19.378;2022-08-23T05:48:34;8.20;;;6.00;;
53525;SDS011;40551;50.478;19.378;2022-08-23T05:51:08;11.00;;;6.90;;
53525;SDS011;40551;50.478;19.378;2022-08-23T05:53:38;13.40;;;7.50;;
53525;SDS011;40551;50.478;19.378;2022-08-23T05:56:08;13.60;;;7.50;;
53525;SDS011;40551;50.478;19.378;2022-08-23T05:58:40;15.10;;;7.30;;
53525;SDS011;40551;50.478;19.378;2022-08-23T06:01:25;11.30;;;6.40;;
53525;SDS011;40551;50.478;19.378;2022-08-23T06:03:58;17.40;;;6.60;;
53525;SDS011;40551;50.478;19.378;2022-08-23T06:06:27;12.10;;;6.30;;
53525;SDS011;40551;50.478;19.378;2022-08-23T06:09:04;10.90;;;5.60;;
53525;SDS011;40551;50.478;19.378;2022-08-23T06:11:36;13.40;;;5.60;;
53525;SDS011;40551;50.478;19.378;2022-08-23T06:14:06;10.00;;;6.20;;
53525;SDS011;40551;50.478;19.378;2022-08-23T06:16:38;8.00;;;5.30;;
53525;SDS011;40551;50.478;19.378;2022-08-23T06:19:12;8.70;;;5.50;;
53525;SDS011;40551;50.478;19.378;2022-08-23T06:21:46;10.30;;;5.50;;
53525;SDS011;40551;50.478;19.378;2022-08-23T06:24:21;12.70;;;6.30;;
53525;SDS011;40551;50.478;19.378;2022-08-23T06:26:59;15.70;;;7.50;;
53525;SDS011;40551;50.478;19.378;2022-08-23T06:29:29;13.30;;;9.80;;
53525;SDS011;40551;50.478;19.378;2022-08-23T06:32:16;15.10;;;11.00;;
53525;SDS011;40551;50.478;19.378;2022-08-23T06:35:05;12.30;;;10.50;;
53525;SDS011;40551;50.478;19.378;2022-08-23T06:38:02;13.10;;;10.80;;
53525;SDS011;40551;50.478;19.378;2022-08-23T06:40:49;20.60;;;11.50;;
53525;SDS011;40551;50.478;19.378;2022-08-23T06:46:08;15.80;;;12.20;;
53525;SDS011;40551;50.478;19.378;2022-08-23T06:48:38;17.40;;;11.80;;
53525;SDS011;40551;50.478;19.378;2022-08-23T06:51:11;17.00;;;12.00;;
53525;SDS011;40551;50.478;19.378;2022-08-23T06:53:54;19.90;;;13.80;;
53525;SDS011;40551;50.478;19.378;2022-08-23T06:59:32;17.40;;;15.60;;
53525;SDS011;40551;50.478;19.378;2022-08-23T07:02:14;18.50;;;14.30;;
53525;SDS011;40551;50.478;19.378;2022-08-23T07:04:58;18.60;;;14.80;;
53525;SDS011;40551;50.478;19.378;2022-08-23T07:07:45;17.30;;;15.40;;
53525;SDS011;40551;50.478;19.378;2022-08-23T07:10:13;19.20;;;14.60;;
53525;SDS011;40551;50.478;19.378;2022-08-23T07:12:43;19.00;;;15.50;;
53525;SDS011;40551;50.478;19.378;2022-08-23T07:15:12;18.70;;;15.50;;
53525;SDS011;40551;50.478;19.378;2022-08-23T07:17:45;20.90;;;16.40;;
53525;SDS011;40551;50.478;19.378;2022-08-23T07:20:13;20.70;;;16.80;;
53525;SDS011;40551;50.478;19.378;2022-08-23T07:22:45;21.10;;;15.50;;
53525;SDS011;40551;50.478;19.378;2022-08-23T07:25:14;22.50;;;15.60;;
53525;SDS011;40551;50.478;19.378;2022-08-23T07:27:48;19.10;;;15.80;;
53525;SDS011;40551;50.478;19.378;2022-08-23T07:30:19;19.40;;;17.10;;
53525;SDS011;40551;50.478;19.378;2022-08-23T07:32:49;21.10;;;17.00;;
53525;SDS011;40551;50.478;19.378;2022-08-23T07:35:21;20.80;;;16.60;;
53525;SDS011;40551;50.478;19.378;2022-08-23T07:37:55;19.70;;;16.80;;
53525;SDS011;40551;50.478;19.378;2022-08-23T07:40:26;21.60;;;17.10;;
53525;SDS011;40551;50.478;19.378;2022-08-23T07:42:57;20.50;;;17.00;;
53525;SDS011;40551;50.478;19.378;2022-08-23T07:45:27;21.30;;;16.80;;
53525;SDS011;40551;50.478;19.378;2022-08-23T07:48:00;21.50;;;17.10;;
53525;SDS011;40551;50.478;19.378;2022-08-23T07:50:34;18.20;;;16.20;;
53525;SDS011;40551;50.478;19.378;2022-08-23T07:53:16;21.60;;;16.40;;
53525;SDS011;40551;50.478;19.378;2022-08-23T07:56:05;25.50;;;16.70;;
53525;SDS011;40551;50.478;19.378;2022-08-23T07:58:56;22.50;;;16.70;;
53525;SDS011;40551;50.478;19.378;2022-08-23T08:01:54;20.50;;;16.40;;
53525;SDS011;40551;50.478;19.378;2022-08-23T08:04:23;19.00;;;16.70;;
53525;SDS011;40551;50.478;19.378;2022-08-23T08:06:53;20.20;;;16.40;;
53525;SDS011;40551;50.478;19.378;2022-08-23T08:09:43;22.40;;;16.40;;
53525;SDS011;40551;50.478;19.378;2022-08-23T08:12:14;18.80;;;16.50;;
53525;SDS011;40551;50.478;19.378;2022-08-23T08:14:43;19.20;;;15.10;;
53525;SDS011;40551;50.478;19.378;2022-08-23T08:17:16;20.50;;;16.20;;
53525;SDS011;40551;50.478;19.378;2022-08-23T08:20:23;20.30;;;17.30;;
53525;SDS011;40551;50.478;19.378;2022-08-23T08:23:20;19.30;;;17.10;;
53525;SDS011;40551;50.478;19.378;2022-08-23T08:26:10;18.10;;;16.20;;
53525;SDS011;40551;50.478;19.378;2022-08-23T08:28:45;21.30;;;15.90;;
53525;SDS011;40551;50.478;19.378;2022-08-23T08:31:15;18.80;;;14.30;;
53525;SDS011;40551;50.478;19.378;2022-08-23T08:33:44;19.20;;;16.80;;
53525;SDS011;40551;50.478;19.378;2022-08-23T08:36:27;22.00;;;16.50;;
53525;SDS011;40551;50.478;19.378;2022-08-23T08:38:58;19.80;;;15.40;;
53525;SDS011;40551;50.478;19.378;2022-08-23T08:41:32;17.60;;;15.80;;
53525;SDS011;40551;50.478;19.378;2022-08-23T08:44:14;21.70;;;16.20;;
53525;SDS011;40551;50.478;19.378;2022-08-23T08:46:53;19.90;;;16.10;;
53525;SDS011;40551;50.478;19.378;2022-08-23T08:49:31;19.90;;;16.30;;
53525;SDS011;40551;50.478;19.378;2022-08-23T08:52:06;23.70;;;16.00;;
53525;SDS011;40551;50.478;19.378;2022-08-23T08:54:42;19.40;;;16.50;;
53525;SDS011;40551;50.478;19.378;2022-08-23T08:57:17;19.50;;;16.00;;
53525;SDS011;40551;50.478;19.378;2022-08-23T08:59:54;18.60;;;16.60;;
53525;SDS011;40551;50.478;19.378;2022-08-23T09:02:32;21.40;;;16.30;;
53525;SDS011;40551;50.478;19.378;2022-08-23T09:05:12;18.30;;;16.30;;
53525;SDS011;40551;50.478;19.378;2022-08-23T09:07:48;18.40;;;16.40;;
53525;SDS011;40551;50.478;19.378;2022-08-23T09:16:29;19.80;;;16.90;;
53525;SDS011;40551;50.478;19.378;2022-08-23T09:19:06;19.40;;;17.10;;
53525;SDS011;40551;50.478;19.378;2022-08-23T09:21:38;18.80;;;16.80;;
53525;SDS011;40551;50.478;19.378;2022-08-23T09:24:12;20.10;;;17.90;;
53525;SDS011;40551;50.478;19.378;2022-08-23T09:26:57;19.70;;;17.70;;
53525;SDS011;40551;50.478;19.378;2022-08-23T09:29:28;19.90;;;17.50;;
53525;SDS011;40551;50.478;19.378;2022-08-23T09:31:59;20.00;;;16.60;;
53525;SDS011;40551;50.478;19.378;2022-08-23T09:34:38;22.50;;;17.50;;
53525;SDS011;40551;50.478;19.378;2022-08-23T09:37:14;18.10;;;15.90;;
53525;SDS011;40551;50.478;19.378;2022-08-23T09:39:51;18.20;;;15.80;;
53525;SDS011;40551;50.478;19.378;2022-08-23T09:45:24;21.50;;;17.60;;
53525;SDS011;40551;50.478;19.378;2022-08-23T09:48:02;22.20;;;18.10;;
53525;SDS011;40551;50.478;19.378;2022-08-23T09:50:36;22.20;;;18.20;;
53525;SDS011;40551;50.478;19.378;2022-08-23T09:53:09;18.70;;;16.40;;
53525;SDS011;40551;50.478;19.378;2022-08-23T09:55:42;18.20;;;16.20;;
53525;SDS011;40551;50.478;19.378;2022-08-23T09:58:18;19.80;;;16.90;;
53525;SDS011;40551;50.478;19.378;2022-08-23T10:01:08;18.30;;;16.10;;
53525;SDS011;40551;50.478;19.378;2022-08-23T10:03:40;18.30;;;15.50;;
53525;SDS011;40551;50.478;19.378;2022-08-23T10:06:27;20.70;;;15.90;;
53525;SDS011;40551;50.478;19.378;2022-08-23T10:09:03;17.40;;;15.60;;
53525;SDS011;40551;50.478;19.378;2022-08-23T10:11:35;18.50;;;15.90;;
53525;SDS011;40551;50.478;19.378;2022-08-23T10:14:07;22.90;;;16.00;;
53525;SDS011;40551;50.478;19.378;2022-08-23T10:16:39;17.20;;;14.90;;
53525;SDS011;40551;50.478;19.378;2022-08-23T10:19:21;16.90;;;13.80;;
53525;SDS011;40551;50.478;19.378;2022-08-23T10:21:59;21.50;;;15.50;;
53525;SDS011;40551;50.478;19.378;2022-08-23T10:24:33;16.60;;;14.90;;
53525;SDS011;40551;50.478;19.378;2022-08-23T10:27:13;17.70;;;15.30;;
53525;SDS011;40551;50.478;19.378;2022-08-23T10:30:13;20.80;;;14.50;;
53525;SDS011;40551;50.478;19.378;2022-08-23T10:32:46;21.70;;;18.80;;
53525;SDS011;40551;50.478;19.378;2022-08-23T10:35:31;17.10;;;14.00;;
53525;SDS011;40551;50.478;19.378;2022-08-23T10:41:11;17.10;;;14.10;;
53525;SDS011;40551;50.478;19.378;2022-08-23T10:43:55;15.60;;;14.00;;
53525;SDS011;40551;50.478;19.378;2022-08-23T10:46:36;18.00;;;15.70;;
53525;SDS011;40551;50.478;19.378;2022-08-23T10:49:11;19.80;;;14.50;;
53525;SDS011;40551;50.478;19.378;2022-08-23T10:51:42;15.40;;;13.80;;
53525;SDS011;40551;50.478;19.378;2022-08-23T10:54:20;17.90;;;13.90;;
53525;SDS011;40551;50.478;19.378;2022-08-23T10:57:01;15.70;;;14.00;;
53525;SDS011;40551;50.478;19.378;2022-08-23T10:59:31;17.20;;;14.80;;
53525;SDS011;40551;50.478;19.378;2022-08-23T11:02:05;14.80;;;13.40;;
53525;SDS011;40551;50.478;19.378;2022-08-23T11:04:50;16.80;;;13.90;;
53525;SDS011;40551;50.478;19.378;2022-08-23T11:07:30;16.80;;;14.80;;
53525;SDS011;40551;50.478;19.378;2022-08-23T11:10:09;17.10;;;14.30;;
53525;SDS011;40551;50.478;19.378;2022-08-23T11:12:50;20.00;;;14.50;;
53525;SDS011;40551;50.478;19.378;2022-08-23T11:15:30;15.70;;;14.00;;
53525;SDS011;40551;50.478;19.378;2022-08-23T11:18:33;16.20;;;14.50;;
53525;SDS011;40551;50.478;19.378;2022-08-23T11:21:07;17.60;;;14.80;;
53525;SDS011;40551;50.478;19.378;2022-08-23T11:27:00;19.50;;;15.10;;
53525;SDS011;40551;50.478;19.378;2022-08-23T11:29:36;19.80;;;16.60;;
53525;SDS011;40551;50.478;19.378;2022-08-23T11:32:35;18.90;;;16.70;;
53525;SDS011;40551;50.478;19.378;2022-08-23T11:35:29;18.90;;;15.10;;
53525;SDS011;40551;50.478;19.378;2022-08-23T11:38:03;21.90;;;16.10;;
53525;SDS011;40551;50.478;19.378;2022-08-23T11:43:29;19.00;;;15.60;;
53525;SDS011;40551;50.478;19.378;2022-08-23T11:52:01;17.20;;;13.60;;
53525;SDS011;40551;50.478;19.378;2022-08-23T11:54:39;15.70;;;13.90;;
53525;SDS011;40551;50.478;19.378;2022-08-23T11:57:32;17.40;;;14.00;;
53525;SDS011;40551;50.478;19.378;2022-08-23T12:00:16;16.50;;;14.00;;
53525;SDS011;40551;50.478;19.378;2022-08-23T12:02:59;22.00;;;13.90;;
53525;SDS011;40551;50.478;19.378;2022-08-23T12:05:41;17.50;;;14.20;;
53525;SDS011;40551;50.478;19.378;2022-08-23T12:09:10;17.80;;;14.60;;
53525;SDS011;40551;50.478;19.378;2022-08-23T12:14:52;19.50;;;14.80;;
53525;SDS011;40551;50.478;19.378;2022-08-23T12:20:28;15.70;;;14.10;;
53525;SDS011;40551;50.478;19.378;2022-08-23T12:23:02;20.30;;;15.80;;
53525;SDS011;40551;50.478;19.378;2022-08-23T12:25:38;17.70;;;14.80;;
53525;SDS011;40551;50.478;19.378;2022-08-23T12:28:16;16.00;;;14.30;;
53525;SDS011;40551;50.478;19.378;2022-08-23T12:31:01;16.20;;;14.20;;
53525;SDS011;40551;50.478;19.378;2022-08-23T12:33:42;17.00;;;15.30;;
53525;SDS011;40551;50.478;19.378;2022-08-23T12:36:31;18.20;;;16.30;;
53525;SDS011;40551;50.478;19.378;2022-08-23T12:39:06;17.80;;;15.90;;
53525;SDS011;40551;50.478;19.378;2022-08-23T12:41:50;19.10;;;17.10;;
53525;SDS011;40551;50.478;19.378;2022-08-23T12:44:22;19.40;;;15.20;;
53525;SDS011;40551;50.478;19.378;2022-08-23T12:46:52;17.90;;;16.00;;
53525;SDS011;40551;50.478;19.378;2022-08-23T12:49:25;17.30;;;14.90;;
53525;SDS011;40551;50.478;19.378;2022-08-23T12:51:57;17.60;;;15.80;;
53525;SDS011;40551;50.478;19.378;2022-08-23T12:54:33;18.40;;;16.50;;
53525;SDS011;40551;50.478;19.378;2022-08-23T12:57:05;18.40;;;15.50;;
53525;SDS011;40551;50.478;19.378;2022-08-23T12:59:38;17.20;;;14.70;;
53525;SDS011;40551;50.478;19.378;2022-08-23T13:02:16;24.30;;;15.80;;
53525;SDS011;40551;50.478;19.378;2022-08-23T13:04:49;18.70;;;15.80;;
53525;SDS011;40551;50.478;19.378;2022-08-23T13:07:19;20.60;;;16.30;;
53525;SDS011;40551;50.478;19.378;2022-08-23T13:09:49;18.80;;;16.40;;
53525;SDS011;40551;50.478;19.378;2022-08-23T13:12:20;21.50;;;16.50;;
53525;SDS011;40551;50.478;19.378;2022-08-23T13:14:49;22.40;;;15.90;;
53525;SDS011;40551;50.478;19.378;2022-08-23T13:17:20;18.00;;;16.10;;
53525;SDS011;40551;50.478;19.378;2022-08-23T13:20:10;18.80;;;15.60;;
53525;SDS011;40551;50.478;19.378;2022-08-23T13:25:32;19.80;;;17.10;;
53525;SDS011;40551;50.478;19.378;2022-08-23T13:28:03;19.70;;;17.70;;
53525;SDS011;40551;50.478;19.378;2022-08-23T13:30:34;18.40;;;16.50;;
53525;SDS011;40551;50.478;19.378;2022-08-23T13:33:17;23.30;;;17.80;;
53525;SDS011;40551;50.478;19.378;2022-08-23T13:35:48;19.30;;;16.90;;
53525;SDS011;40551;50.478;19.378;2022-08-23T13:38:21;18.10;;;16.30;;
53525;SDS011;40551;50.478;19.378;2022-08-23T13:40:59;18.70;;;16.00;;
53525;SDS011;40551;50.478;19.378;2022-08-23T13:43:30;18.60;;;16.60;;
53525;SDS011;40551;50.478;19.378;2022-08-23T13:46:09;19.10;;;16.80;;
53525;SDS011;40551;50.478;19.378;2022-08-23T13:48:43;19.70;;;17.70;;
53525;SDS011;40551;50.478;19.378;2022-08-23T13:51:26;24.50;;;16.90;;
53525;SDS011;40551;50.478;19.378;2022-08-23T13:53:58;19.60;;;16.90;;
53525;SDS011;40551;50.478;19.378;2022-08-23T13:56:28;21.50;;;17.80;;
53525;SDS011;40551;50.478;19.378;2022-08-23T13:59:00;21.30;;;17.80;;
53525;SDS011;40551;50.478;19.378;2022-08-23T14:01:31;22.20;;;18.70;;
53525;SDS011;40551;50.478;19.378;2022-08-23T14:04:00;20.20;;;17.90;;
53525;SDS011;40551;50.478;19.378;2022-08-23T14:06:28;20.70;;;18.50;;
53525;SDS011;40551;50.478;19.378;2022-08-23T14:08:56;22.00;;;19.30;;
53525;SDS011;40551;50.478;19.378;2022-08-23T14:11:24;21.10;;;19.00;;
53525;SDS011;40551;50.478;19.378;2022-08-23T14:13:53;23.20;;;19.80;;
53525;SDS011;40551;50.478;19.378;2022-08-23T14:16:23;21.50;;;19.30;;
53525;SDS011;40551;50.478;19.378;2022-08-23T14:19:06;22.30;;;19.60;;
53525;SDS011;40551;50.478;19.378;2022-08-23T14:21:56;21.30;;;19.10;;
53525;SDS011;40551;50.478;19.378;2022-08-23T14:24:25;22.80;;;19.40;;
53525;SDS011;40551;50.478;19.378;2022-08-23T14:26:54;21.00;;;19.00;;
53525;SDS011;40551;50.478;19.378;2022-08-23T14:29:23;22.40;;;19.80;;
53525;SDS011;40551;50.478;19.378;2022-08-23T14:31:54;21.20;;;18.80;;
53525;SDS011;40551;50.478;19.378;2022-08-23T14:34:24;22.20;;;19.50;;
53525;SDS011;40551;50.478;19.378;2022-08-23T14:36:52;22.00;;;19.80;;
53525;SDS011;40551;50.478;19.378;2022-08-23T14:39:41;23.70;;;21.20;;
53525;SDS011;40551;50.478;19.378;2022-08-23T14:42:09;24.60;;;22.10;;
53525;SDS011;40551;50.478;19.378;2022-08-23T14:44:43;25.40;;;23.00;;
53525;SDS011;40551;50.478;19.378;2022-08-23T14:47:11;24.80;;;21.60;;
53525;SDS011;40551;50.478;19.378;2022-08-23T14:49:39;24.50;;;22.00;;
53525;SDS011;40551;50.478;19.378;2022-08-23T14:52:10;22.20;;;19.90;;
53525;SDS011;40551;50.478;19.378;2022-08-23T14:54:39;23.80;;;20.60;;
53525;SDS011;40551;50.478;19.378;2022-08-23T14:57:11;23.20;;;20.90;;
53525;SDS011;40551;50.478;19.378;2022-08-23T14:59:39;24.30;;;21.60;;
53525;SDS011;40551;50.478;19.378;2022-08-23T15:02:07;24.60;;;22.10;;
53525;SDS011;40551;50.478;19.378;2022-08-23T15:04:39;23.70;;;21.50;;
53525;SDS011;40551;50.478;19.378;2022-08-23T15:07:09;25.00;;;22.50;;
53525;SDS011;40551;50.478;19.378;2022-08-23T15:09:47;26.40;;;23.30;;
53525;SDS011;40551;50.478;19.378;2022-08-23T15:12:21;24.50;;;22.10;;
53525;SDS011;40551;50.478;19.378;2022-08-23T15:15:12;25.60;;;23.30;;
53525;SDS011;40551;50.478;19.378;2022-08-23T15:17:44;26.20;;;23.60;;
53525;SDS011;40551;50.478;19.378;2022-08-23T15:20:18;24.50;;;21.50;;
53525;SDS011;40551;50.478;19.378;2022-08-23T15:22:48;15.60;;;14.10;;
53525;SDS011;40551;50.478;19.378;2022-08-23T15:25:23;17.40;;;14.60;;
53525;SDS011;40551;50.478;19.378;2022-08-23T15:27:56;18.60;;;16.70;;
53525;SDS011;40551;50.478;19.378;2022-08-23T15:30:27;21.20;;;19.10;;
53525;SDS011;40551;50.478;19.378;2022-08-23T15:33:01;19.20;;;17.20;;
53525;SDS011;40551;50.478;19.378;2022-08-23T15:35:32;17.80;;;15.50;;
53525;SDS011;40551;50.478;19.378;2022-08-23T15:38:07;17.70;;;15.90;;
53525;SDS011;40551;50.478;19.378;2022-08-23T15:40:36;20.10;;;16.80;;